createdAt,value
2023-07-20T00:01:17.085Z,6.55
2023-07-20T00:02:17.087Z,6.15
2023-07-20T00:03:17.123Z,6.46
2023-07-20T00:04:17.203Z,6.24
2023-07-20T00:05:17.233Z,5.67
2023-07-20T00:06:17.253Z,6.00
2023-07-20T00:07:17.310Z,5.17
2023-07-20T00:08:17.350Z,5.23
2023-07-20T00:09:17.370Z,5.24
2023-07-20T00:10:17.409Z,5.22
2023-07-20T00:11:17.485Z,5.60
2023-07-20T00:12:17.556Z,5.56
2023-07-20T00:13:17.585Z,5.34
2023-07-20T00:14:17.642Z,6.01
2023-07-20T00:15:17.678Z,5.78
2023-07-20T00:16:17.739Z,6.52
2023-07-20T00:17:17.749Z,6.44
2023-07-20T00:18:17.815Z,6.04
2023-07-20T00:19:17.849Z,6.12
2023-07-20T00:20:17.925Z,6.74
2023-07-20T00:21:17.989Z,6.60
2023-07-20T00:22:18.038Z,5.97
2023-07-20T00:23:18.085Z,5.77
2023-07-20T00:24:18.078Z,5.51
2023-07-20T00:25:18.111Z,4.94
2023-07-20T00:26:18.108Z,5.15
2023-07-20T00:27:18.191Z,5.16
2023-07-20T00:28:18.170Z,5.44
2023-07-20T00:29:18.167Z,5.91
2023-07-20T00:30:18.220Z,5.61
2023-07-20T00:31:18.279Z,5.70
2023-07-20T00:32:18.219Z,6.00
2023-07-20T00:33:18.229Z,5.40
2023-07-20T00:34:18.249Z,5.50
2023-07-20T00:35:18.288Z,5.17
2023-07-20T00:36:18.269Z,4.90
2023-07-20T00:37:18.285Z,5.33
2023-07-20T00:38:18.307Z,4.60
2023-07-20T00:39:18.296Z,4.81
2023-07-20T00:40:18.299Z,4.99
2023-07-20T00:41:18.328Z,4.25
2023-07-20T00:42:18.361Z,4.56
2023-07-20T00:43:18.401Z,4.61
2023-07-20T00:44:18.410Z,4.40
2023-07-20T00:45:18.428Z,4.31
2023-07-20T00:46:18.490Z,4.65
2023-07-20T00:47:18.470Z,4.89
2023-07-20T00:48:18.515Z,5.15
2023-07-20T00:49:18.569Z,4.75
2023-07-20T00:50:18.620Z,5.47
2023-07-20T00:51:18.623Z,4.83
2023-07-20T00:52:18.651Z,4.64
2023-07-20T00:53:18.653Z,5.37
2023-07-20T00:54:18.683Z,4.89
2023-07-20T00:55:18.687Z,4.30
2023-07-20T00:56:18.712Z,3.95
2023-07-20T00:57:18.728Z,4.53
2023-07-20T00:58:18.732Z,5.57
2023-07-20T00:59:18.782Z,4.28
2023-07-20T01:00:18.797Z,4.45
2023-07-20T01:01:18.886Z,4.74
2023-07-20T01:02:18.847Z,4.80
2023-07-20T01:03:18.930Z,4.98
2023-07-20T01:04:18.851Z,4.83
2023-07-20T01:05:18.870Z,5.45
2023-07-20T01:06:18.964Z,4.75
2023-07-20T01:07:18.970Z,4.89
2023-07-20T01:08:19.000Z,4.92
2023-07-20T01:09:19.039Z,5.09
2023-07-20T01:10:19.081Z,5.28
2023-07-20T01:11:19.106Z,4.38
2023-07-20T01:12:19.134Z,5.33
2023-07-20T01:13:19.191Z,4.60
2023-07-20T01:14:19.236Z,4.94
2023-07-20T01:15:19.286Z,5.10
2023-07-20T01:16:19.425Z,4.73
2023-07-20T01:17:19.361Z,4.51
2023-07-20T01:18:19.414Z,4.92
2023-07-20T01:19:19.478Z,5.59
2023-07-20T01:20:19.543Z,5.14
2023-07-20T01:21:19.603Z,4.89
2023-07-20T01:22:19.617Z,4.90
2023-07-20T01:23:19.704Z,5.66
2023-07-20T01:24:19.687Z,6.03
2023-07-20T01:25:19.717Z,4.82
2023-07-20T01:26:19.914Z,4.38
2023-07-20T01:27:19.768Z,4.98
2023-07-20T01:28:19.825Z,5.29
2023-07-20T01:29:19.897Z,4.65
2023-07-20T01:30:19.904Z,4.65
2023-07-20T01:31:20.649Z,5.07
2023-07-20T01:32:20.207Z,4.99
2023-07-20T01:33:20.063Z,4.83
2023-07-20T01:34:20.080Z,5.55
2023-07-20T01:35:20.131Z,4.37
2023-07-20T01:36:20.523Z,5.48
2023-07-20T01:37:20.186Z,4.70
2023-07-20T01:38:20.196Z,4.72
2023-07-20T01:39:20.229Z,5.49
2023-07-20T01:40:20.263Z,5.03
2023-07-20T01:41:20.296Z,5.37
2023-07-20T01:42:20.329Z,5.21
2023-07-20T01:43:21.080Z,4.90
2023-07-20T01:44:20.438Z,5.45
2023-07-20T01:45:20.477Z,5.58
2023-07-20T01:46:20.648Z,5.29
2023-07-20T01:47:20.604Z,5.49
2023-07-20T01:48:20.656Z,5.68
2023-07-20T01:49:20.674Z,5.12
2023-07-20T01:50:20.724Z,5.51
2023-07-20T01:51:20.756Z,5.89
2023-07-20T01:52:20.790Z,5.71
2023-07-20T01:53:20.792Z,4.54
2023-07-20T01:54:20.799Z,4.62
2023-07-20T01:55:20.834Z,4.51
2023-07-20T01:56:21.174Z,4.84
2023-07-20T01:57:20.932Z,4.98
2023-07-20T01:58:21.003Z,4.65
2023-07-20T01:59:21.041Z,5.30
2023-07-20T02:00:21.105Z,4.64
2023-07-20T02:01:21.170Z,5.55
2023-07-20T02:02:21.182Z,5.38
2023-07-20T02:03:21.219Z,5.50
2023-07-20T02:04:21.275Z,5.31
2023-07-20T02:05:21.387Z,4.89
2023-07-20T02:06:21.687Z,5.12
2023-07-20T02:07:21.369Z,5.42
2023-07-20T02:08:21.371Z,5.38
2023-07-20T02:09:21.376Z,4.76
2023-07-20T02:10:21.396Z,4.73
2023-07-20T02:11:21.425Z,5.27
2023-07-20T02:12:21.448Z,5.34
2023-07-20T02:13:21.475Z,4.97
2023-07-20T02:14:21.503Z,4.56
2023-07-20T02:15:21.509Z,5.08
2023-07-20T02:16:21.931Z,5.47
2023-07-20T02:17:21.549Z,4.84
2023-07-20T02:18:21.569Z,5.37
2023-07-20T02:19:21.618Z,4.99
2023-07-20T02:20:21.646Z,5.13
2023-07-20T02:21:21.701Z,5.33
2023-07-20T02:22:21.751Z,5.39
2023-07-20T02:23:21.782Z,5.44
2023-07-20T02:24:21.829Z,5.49
2023-07-20T02:25:21.899Z,5.35
2023-07-20T02:26:22.241Z,5.80
2023-07-20T02:27:22.011Z,5.23
2023-07-20T02:28:22.041Z,4.66
2023-07-20T02:29:22.088Z,5.19
2023-07-20T02:30:22.110Z,5.20
2023-07-20T02:31:22.145Z,5.41
2023-07-20T02:32:22.169Z,5.88
2023-07-20T02:33:22.176Z,5.56
2023-07-20T02:34:22.256Z,5.28
2023-07-20T02:35:22.254Z,4.90
2023-07-20T02:36:22.549Z,5.88
2023-07-20T02:37:22.288Z,5.39
2023-07-20T02:38:22.294Z,5.02
2023-07-20T02:39:22.369Z,5.62
2023-07-20T02:40:22.314Z,4.35
2023-07-20T02:41:22.321Z,5.52
2023-07-20T02:42:22.353Z,5.90
2023-07-20T02:43:22.398Z,5.40
2023-07-20T02:44:22.468Z,5.92
2023-07-20T02:45:22.502Z,5.15
2023-07-20T02:46:22.765Z,6.06
2023-07-20T02:47:22.560Z,5.63
2023-07-20T02:48:22.615Z,5.66
2023-07-20T02:49:22.695Z,5.32
2023-07-20T02:50:22.704Z,5.70
2023-07-20T02:51:22.688Z,5.42
2023-07-20T02:52:22.986Z,5.23
2023-07-20T02:53:22.761Z,5.83
2023-07-20T02:54:22.835Z,5.06
2023-07-20T02:55:22.834Z,5.09
2023-07-20T02:56:23.072Z,4.77
2023-07-20T02:57:22.928Z,4.97
2023-07-20T02:58:22.996Z,5.02
2023-07-20T02:59:23.005Z,4.57
2023-07-20T03:00:23.046Z,4.94
2023-07-20T03:01:23.140Z,4.59
2023-07-20T03:02:23.155Z,4.36
2023-07-20T03:03:23.271Z,4.42
2023-07-20T03:04:23.244Z,4.56
2023-07-20T03:05:23.279Z,5.39
2023-07-20T03:06:23.720Z,4.31
2023-07-20T03:07:23.366Z,4.30
2023-07-20T03:08:23.432Z,4.39
2023-07-20T03:09:23.508Z,4.89
2023-07-20T03:10:23.496Z,4.65
2023-07-20T03:11:23.525Z,4.96
2023-07-20T03:12:23.563Z,5.13
2023-07-20T03:13:23.592Z,4.67
2023-07-20T03:14:23.627Z,5.19
2023-07-20T03:15:23.617Z,4.90
2023-07-20T03:16:23.851Z,4.48
2023-07-20T03:17:23.799Z,4.56
2023-07-20T03:18:23.754Z,4.87
2023-07-20T03:19:23.841Z,4.88
2023-07-20T03:20:23.898Z,5.15
2023-07-20T03:21:23.922Z,4.85
2023-07-20T03:22:23.994Z,4.91
2023-07-20T03:23:23.999Z,5.00
2023-07-20T03:24:24.035Z,5.33
2023-07-20T03:25:25.412Z,4.88
2023-07-20T03:26:24.392Z,5.03
2023-07-20T03:27:24.079Z,5.10
2023-07-20T03:28:24.072Z,4.85
2023-07-20T03:29:24.071Z,5.50
2023-07-20T03:30:24.061Z,4.65
2023-07-20T03:31:24.202Z,5.40
2023-07-20T03:32:24.070Z,5.85
2023-07-20T03:33:24.061Z,5.43
2023-07-20T03:34:24.025Z,5.15
2023-07-20T03:35:24.017Z,4.88
2023-07-20T03:36:24.295Z,5.08
2023-07-20T03:37:24.025Z,4.96
2023-07-20T03:38:24.001Z,5.30
2023-07-20T03:39:23.987Z,5.77
2023-07-20T03:40:23.989Z,5.60
2023-07-20T03:41:23.987Z,4.45
2023-07-20T03:42:23.965Z,5.57
2023-07-20T03:43:23.953Z,4.94
2023-07-20T03:44:23.953Z,5.43
2023-07-20T03:45:23.961Z,5.47
2023-07-20T03:46:24.083Z,5.29
2023-07-20T03:47:23.937Z,5.10
2023-07-20T03:48:23.921Z,5.05
2023-07-20T03:49:23.929Z,5.32
2023-07-20T03:50:23.925Z,4.44
2023-07-20T03:51:23.904Z,4.65
2023-07-20T03:52:23.907Z,5.31
2023-07-20T03:53:23.904Z,4.45
2023-07-20T03:54:23.886Z,4.91
2023-07-20T03:55:23.895Z,4.83
2023-07-20T03:56:24.069Z,5.35
2023-07-20T03:57:23.897Z,4.97
2023-07-20T03:58:23.853Z,5.28
2023-07-20T03:59:23.853Z,4.47
2023-07-20T04:00:23.856Z,4.34
2023-07-20T04:01:23.873Z,4.47
2023-07-20T04:02:23.817Z,4.43
2023-07-20T04:03:23.992Z,4.77
2023-07-20T04:04:23.817Z,5.06
2023-07-20T04:05:23.852Z,4.59
2023-07-20T04:06:24.251Z,4.99
2023-07-20T04:07:23.961Z,4.89
2023-07-20T04:08:23.992Z,5.16
2023-07-20T04:09:24.031Z,4.74
2023-07-20T04:10:24.071Z,4.98
2023-07-20T04:11:24.102Z,4.68
2023-07-20T04:12:24.137Z,4.96
2023-07-20T04:13:24.151Z,4.75
2023-07-20T04:14:24.175Z,4.45
2023-07-20T04:15:24.202Z,4.44
2023-07-20T04:16:24.524Z,4.51
2023-07-20T04:17:24.275Z,4.41
2023-07-20T04:18:24.303Z,4.83
2023-07-20T04:19:24.349Z,5.01
2023-07-20T04:20:24.354Z,4.53
2023-07-20T04:21:24.409Z,4.77
2023-07-20T04:22:24.387Z,4.49
2023-07-20T04:23:24.418Z,5.23
2023-07-20T04:24:24.504Z,4.88
2023-07-20T04:25:24.470Z,4.68
2023-07-20T04:26:24.588Z,5.67
2023-07-20T04:27:24.535Z,5.61
2023-07-20T04:28:24.563Z,4.78
2023-07-20T04:29:24.584Z,5.07
2023-07-20T04:30:24.630Z,5.06
2023-07-20T04:31:24.686Z,4.72
2023-07-20T04:32:24.696Z,4.54
2023-07-20T04:33:24.724Z,5.05
2023-07-20T04:34:24.717Z,5.18
2023-07-20T04:35:25.165Z,5.23
2023-07-20T04:36:24.981Z,5.12
2023-07-20T04:37:24.808Z,27.93
2023-07-20T04:38:24.834Z,30.07
2023-07-20T04:39:31.535Z,36.86
2023-07-20T04:40:25.872Z,24.89
2023-07-20T04:41:24.849Z,7.93
2023-07-20T04:42:24.852Z,5.40
2023-07-20T04:43:24.827Z,5.01
2023-07-20T04:44:24.833Z,5.24
2023-07-20T04:45:24.860Z,10.55
2023-07-20T04:46:25.160Z,11.33
2023-07-20T04:47:24.887Z,7.39
2023-07-20T04:48:24.808Z,6.68
2023-07-20T04:49:24.806Z,8.59
2023-07-20T04:50:24.823Z,6.29
2023-07-20T04:51:24.777Z,5.67
2023-07-20T04:52:37.378Z,5.24
2023-07-20T04:53:25.781Z,5.14
2023-07-20T04:54:24.773Z,5.43
2023-07-20T04:55:24.753Z,5.22
2023-07-20T04:56:25.137Z,4.69
2023-07-20T04:57:24.734Z,5.18
2023-07-20T04:58:24.739Z,5.25
2023-07-20T04:59:24.722Z,5.54
2023-07-20T05:00:24.723Z,4.64
2023-07-20T05:01:24.727Z,5.38
2023-07-20T05:02:24.734Z,6.70
2023-07-20T05:03:24.833Z,5.57
2023-07-20T05:04:24.794Z,5.93
2023-07-20T05:05:24.763Z,4.72
2023-07-20T05:06:25.104Z,5.17
2023-07-20T05:07:24.714Z,5.66
2023-07-20T05:08:24.737Z,5.38
2023-07-20T05:09:24.775Z,4.81
2023-07-20T05:10:24.830Z,5.11
2023-07-20T05:11:24.817Z,5.15
2023-07-20T05:12:24.869Z,5.72
2023-07-20T05:13:24.870Z,6.13
2023-07-20T05:14:24.896Z,5.49
2023-07-20T05:15:24.912Z,5.73
2023-07-20T05:16:25.080Z,5.96
2023-07-20T05:17:24.903Z,5.74
2023-07-20T05:18:24.934Z,6.17
2023-07-20T05:19:24.968Z,5.47
2023-07-20T05:20:24.985Z,5.94
2023-07-20T05:21:24.986Z,6.25
2023-07-20T05:22:25.002Z,6.47
2023-07-20T05:23:25.032Z,6.36
2023-07-20T05:24:25.062Z,6.37
2023-07-20T05:25:25.079Z,6.20
2023-07-20T05:26:25.339Z,5.95
2023-07-20T05:27:25.088Z,6.58
2023-07-20T05:28:25.057Z,6.37
2023-07-20T05:29:25.064Z,13.19
2023-07-20T05:30:25.096Z,10.89
2023-07-20T05:31:25.151Z,11.52
2023-07-20T05:32:25.097Z,9.72
2023-07-20T05:33:25.153Z,7.09
2023-07-20T05:34:25.249Z,15.30
2023-07-20T05:35:25.246Z,10.35
2023-07-20T05:36:25.253Z,7.43
2023-07-20T05:37:25.256Z,6.73
2023-07-20T05:38:25.306Z,6.28
2023-07-20T05:39:25.312Z,5.42
2023-07-20T05:40:25.314Z,7.20
2023-07-20T05:41:25.344Z,7.31
2023-07-20T05:42:25.332Z,6.74
2023-07-20T05:43:25.321Z,6.45
2023-07-20T05:44:25.327Z,6.90
2023-07-20T05:45:25.347Z,7.48
2023-07-20T05:46:25.753Z,6.58
2023-07-20T05:47:25.394Z,7.19
2023-07-20T05:48:25.347Z,6.52
2023-07-20T05:49:25.367Z,6.32
2023-07-20T05:50:25.406Z,6.17
2023-07-20T05:51:25.430Z,6.30
2023-07-20T05:52:25.419Z,7.04
2023-07-20T05:53:25.449Z,6.40
2023-07-20T05:54:25.445Z,6.30
2023-07-20T05:55:25.443Z,6.95
2023-07-20T05:56:25.572Z,6.54
2023-07-20T05:57:25.497Z,6.77
2023-07-20T05:58:25.571Z,6.04
2023-07-20T05:59:25.611Z,6.72
2023-07-20T06:00:25.668Z,7.33
2023-07-20T06:01:25.762Z,6.75
2023-07-20T06:02:25.777Z,7.18
2023-07-20T06:03:25.858Z,7.01
2023-07-20T06:04:25.821Z,6.88
2023-07-20T06:05:28.939Z,7.30
2023-07-20T06:06:25.860Z,6.85
2023-07-20T06:07:25.858Z,6.82
2023-07-20T06:08:25.856Z,6.88
2023-07-20T06:09:25.844Z,6.86
2023-07-20T06:10:25.852Z,6.46
2023-07-20T06:11:25.835Z,6.47
2023-07-20T06:12:25.829Z,6.64
2023-07-20T06:13:25.824Z,6.46
2023-07-20T06:14:25.822Z,6.75
2023-07-20T06:15:25.815Z,6.74
2023-07-20T06:16:26.374Z,7.47
2023-07-20T06:17:25.835Z,6.49
2023-07-20T06:18:25.784Z,6.63
2023-07-20T06:19:25.782Z,6.33
2023-07-20T06:20:25.790Z,7.31
2023-07-20T06:21:25.780Z,7.03
2023-07-20T06:22:25.768Z,7.02
2023-07-20T06:23:25.764Z,7.94
2023-07-20T06:24:25.740Z,6.70
2023-07-20T06:25:25.753Z,7.06
2023-07-20T06:26:26.041Z,7.22
2023-07-20T06:27:25.728Z,6.85
2023-07-20T06:28:25.716Z,7.46
2023-07-20T06:29:25.708Z,7.36
2023-07-20T06:30:25.736Z,6.10
2023-07-20T06:31:25.714Z,6.96
2023-07-20T06:32:25.691Z,6.27
2023-07-20T06:33:25.751Z,6.14
2023-07-20T06:34:25.678Z,6.23
2023-07-20T06:35:25.670Z,7.24
2023-07-20T06:36:25.809Z,6.81
2023-07-20T06:37:25.661Z,7.70
2023-07-20T06:42:25.951Z,7.03
2023-07-20T06:44:25.607Z,8.58
2023-07-20T06:45:25.602Z,10.38
2023-07-20T06:46:26.060Z,9.43
2023-07-20T06:47:25.673Z,8.42
2023-07-20T06:48:25.585Z,6.48
2023-07-20T06:49:25.572Z,5.98
2023-07-20T06:50:27.921Z,6.59
2023-07-20T06:51:26.219Z,5.43
2023-07-20T06:52:25.790Z,6.21
2023-07-20T06:53:25.850Z,6.74
2023-07-20T06:54:25.869Z,6.89
2023-07-20T06:55:25.920Z,7.35
2023-07-20T06:56:26.708Z,7.42
2023-07-20T06:57:26.105Z,5.80
2023-07-20T06:58:26.105Z,7.49
2023-07-20T06:59:26.182Z,7.18
2023-07-20T07:00:26.206Z,7.18
2023-07-20T07:01:26.572Z,6.04
2023-07-20T07:02:26.340Z,6.78
2023-07-20T07:03:28.969Z,6.44
2023-07-20T07:04:26.637Z,7.00
2023-07-20T07:06:27.883Z,7.21
2023-07-20T07:07:27.184Z,6.34
2023-07-20T07:08:26.562Z,6.87
2023-07-20T07:09:26.568Z,6.59
2023-07-20T07:10:26.560Z,7.13
2023-07-20T07:11:26.542Z,8.11
2023-07-20T07:12:26.535Z,6.81
2023-07-20T07:13:26.543Z,6.61
2023-07-20T07:14:28.250Z,8.21
2023-07-20T07:15:26.718Z,8.42
2023-07-20T07:16:26.930Z,7.20
2023-07-20T07:17:26.587Z,8.34
2023-07-20T07:18:26.505Z,7.05
2023-07-20T07:19:26.491Z,6.74
2023-07-20T07:20:26.556Z,6.45
2023-07-20T07:21:26.482Z,6.35
2023-07-20T07:22:26.488Z,7.16
2023-07-20T07:23:26.489Z,7.27
2023-07-20T07:25:26.552Z,6.41
2023-07-20T07:26:26.510Z,7.70
2023-07-20T07:27:26.522Z,6.62
2023-07-20T07:28:26.524Z,7.07
2023-07-20T07:29:26.537Z,7.35
2023-07-20T07:30:26.614Z,6.23
2023-07-20T07:31:26.710Z,7.04
2023-07-20T07:32:26.692Z,6.25
2023-07-20T07:33:26.738Z,6.45
2023-07-20T07:34:26.804Z,7.45
2023-07-20T07:35:26.849Z,6.60
2023-07-20T07:36:26.881Z,7.05
2023-07-20T07:37:26.927Z,7.28
2023-07-20T07:39:34.871Z,6.57
2023-07-20T07:40:27.940Z,7.54
2023-07-20T07:41:26.925Z,6.93
2023-07-20T07:42:26.949Z,8.15
2023-07-20T07:43:26.915Z,8.28
2023-07-20T07:44:26.934Z,8.45
2023-07-20T07:45:26.937Z,7.06
2023-07-20T07:46:27.107Z,9.68
2023-07-20T07:47:26.954Z,14.35
2023-07-20T07:48:26.897Z,9.54
2023-07-20T07:49:26.887Z,9.70
2023-07-20T07:50:26.926Z,7.65
2023-07-20T07:51:26.885Z,6.16
2023-07-20T07:52:26.877Z,6.19
2023-07-20T07:53:26.890Z,5.81
2023-07-20T07:54:26.858Z,6.16
2023-07-20T07:55:26.853Z,5.94
2023-07-20T07:56:26.973Z,6.21
2023-07-20T07:57:26.849Z,6.67
2023-07-20T07:58:26.866Z,6.32
2023-07-20T07:59:26.899Z,6.59
2023-07-20T08:00:26.989Z,5.65
2023-07-20T08:01:27.051Z,6.88
2023-07-20T08:02:27.048Z,6.57
2023-07-20T08:03:27.042Z,5.97
2023-07-20T08:04:27.051Z,5.07
2023-07-20T08:05:27.089Z,5.67
2023-07-20T08:06:27.211Z,5.59
2023-07-20T08:07:27.155Z,4.58
2023-07-20T08:08:27.216Z,5.19
2023-07-20T08:09:27.213Z,5.48
2023-07-20T08:10:27.271Z,4.90
2023-07-20T08:11:27.314Z,5.40
2023-07-20T08:12:27.329Z,5.75
2023-07-20T08:13:27.318Z,5.47
2023-07-20T08:14:27.360Z,5.50
2023-07-20T08:15:27.375Z,5.32
2023-07-20T08:16:27.809Z,5.29
2023-07-20T08:17:27.528Z,5.20
2023-07-20T08:18:27.499Z,5.23
2023-07-20T08:19:27.509Z,5.06
2023-07-20T08:20:27.551Z,5.71
2023-07-20T08:21:27.485Z,5.31
2023-07-20T08:22:27.525Z,4.65
2023-07-20T08:23:27.526Z,4.83
2023-07-20T08:24:27.604Z,5.56
2023-07-20T08:25:27.574Z,5.38
2023-07-20T08:26:27.787Z,5.46
2023-07-20T08:27:27.650Z,4.84
2023-07-20T08:28:27.636Z,5.34
2023-07-20T08:29:27.700Z,5.34
2023-07-20T08:30:27.723Z,5.34
2023-07-20T08:31:27.837Z,5.15
2023-07-20T08:32:27.808Z,4.69
2023-07-20T08:33:27.804Z,5.89
2023-07-20T08:34:31.673Z,5.18
2023-07-20T08:35:28.415Z,4.67
2023-07-20T08:36:28.059Z,5.32
2023-07-20T08:37:27.808Z,5.11
2023-07-20T08:38:27.792Z,5.01
2023-07-20T08:39:27.786Z,5.53
2023-07-20T08:40:27.777Z,5.61
2023-07-20T08:41:27.784Z,5.85
2023-07-20T08:42:27.759Z,5.15
2023-07-20T08:43:27.761Z,4.53
2023-07-20T08:44:27.755Z,5.66
2023-07-20T08:45:27.742Z,4.74
2023-07-20T08:46:27.753Z,5.31
2023-07-20T08:47:27.793Z,5.21
2023-07-20T08:48:27.730Z,4.97
2023-07-20T08:49:27.715Z,5.13
2023-07-20T08:50:27.708Z,4.90
2023-07-20T08:51:27.716Z,4.71
2023-07-20T08:52:27.709Z,4.90
2023-07-20T08:53:27.700Z,4.71
2023-07-20T08:54:27.690Z,4.54
2023-07-20T08:55:27.697Z,5.48
2023-07-20T08:56:27.695Z,4.04
2023-07-20T08:57:27.701Z,5.29
2023-07-20T08:58:27.756Z,3.74
2023-07-20T08:59:27.713Z,4.27
2023-07-20T09:00:27.812Z,4.30
2023-07-20T09:01:27.842Z,4.40
2023-07-20T09:02:27.876Z,4.52
2023-07-20T09:03:27.833Z,4.82
2023-07-20T09:04:27.861Z,4.60
2023-07-20T09:05:27.924Z,4.60
2023-07-20T09:06:28.481Z,4.99
2023-07-20T09:07:27.859Z,4.61
2023-07-20T09:08:27.864Z,4.63
2023-07-20T09:09:27.873Z,5.53
2023-07-20T09:10:27.872Z,4.41
2023-07-20T09:11:27.879Z,5.31
2023-07-20T09:12:27.949Z,6.01
2023-07-20T09:13:28.689Z,5.52
2023-07-20T09:14:28.045Z,4.58
2023-07-20T09:15:28.079Z,4.61
2023-07-20T09:16:28.370Z,4.81
2023-07-20T09:17:30.428Z,3.98
2023-07-20T09:18:28.253Z,4.01
2023-07-20T09:19:28.309Z,4.04
2023-07-20T09:20:28.357Z,4.51
2023-07-20T09:21:28.365Z,4.75
2023-07-20T09:22:28.393Z,4.88
2023-07-20T09:23:28.425Z,3.89
2023-07-20T09:24:30.215Z,4.70
2023-07-20T09:25:31.449Z,4.19
2023-07-20T09:26:29.060Z,4.71
2023-07-20T09:27:28.534Z,4.30
2023-07-20T09:28:28.508Z,4.53
2023-07-20T09:29:28.651Z,4.64
2023-07-20T09:31:40.573Z,4.49
2023-07-20T09:32:30.724Z,4.00
2023-07-20T09:33:28.956Z,3.87
2023-07-20T09:35:32.975Z,4.32
2023-07-20T09:37:29.479Z,4.17
2023-07-20T09:38:28.470Z,4.20
2023-07-20T09:39:29.975Z,3.94
2023-07-20T09:40:55.284Z,4.39
2023-07-20T09:43:28.475Z,4.25
2023-07-20T09:45:57.417Z,4.04
2023-07-20T09:47:29.230Z,3.72
2023-07-20T09:49:30.698Z,3.81
2023-07-20T09:50:28.527Z,4.14
2023-07-20T09:51:28.529Z,3.60
2023-07-20T09:53:28.546Z,4.30
2023-07-20T09:54:28.520Z,4.20
2023-07-20T09:55:28.522Z,4.02
2023-07-20T09:56:28.958Z,4.20
2023-07-20T09:57:28.511Z,5.24
2023-07-20T09:58:28.803Z,4.22
2023-07-20T09:59:28.502Z,3.86
2023-07-20T10:01:28.685Z,4.01
2023-07-20T10:02:28.512Z,4.37
2023-07-20T10:03:29.823Z,4.35
2023-07-20T10:04:28.459Z,4.40
2023-07-20T10:05:28.483Z,3.76
2023-07-20T10:06:28.452Z,4.78
2023-07-20T10:07:28.470Z,3.91
2023-07-20T10:09:28.460Z,3.58
2023-07-20T10:10:28.441Z,4.70
2023-07-20T10:11:28.412Z,3.86
2023-07-20T10:12:28.412Z,4.69
2023-07-20T10:13:28.439Z,4.06
2023-07-20T10:14:28.395Z,3.95
2023-07-20T10:15:28.395Z,4.09
2023-07-20T10:16:28.404Z,4.29
2023-07-20T10:17:28.425Z,3.78
2023-07-20T10:18:28.401Z,4.41
2023-07-20T10:19:28.365Z,4.42
2023-07-20T10:20:28.364Z,4.33
2023-07-20T10:22:28.393Z,4.51
2023-07-20T10:23:28.350Z,4.47
2023-07-20T10:24:28.378Z,6.46
2023-07-20T10:25:28.322Z,5.68
2023-07-20T10:26:28.414Z,4.51
2023-07-20T10:27:28.423Z,4.22
2023-07-20T10:28:28.315Z,4.53
2023-07-20T10:29:28.296Z,4.13
2023-07-20T10:30:28.296Z,4.15
2023-07-20T10:31:28.301Z,4.17
2023-07-20T10:32:28.314Z,4.53
2023-07-20T10:33:28.276Z,3.58
2023-07-20T10:34:28.268Z,4.52
2023-07-20T10:35:28.273Z,4.21
2023-07-20T10:36:29.839Z,4.35
2023-07-20T10:37:28.239Z,4.03
2023-07-20T10:38:28.245Z,3.76
2023-07-20T10:39:28.245Z,4.63
2023-07-20T10:40:28.230Z,4.85
2023-07-20T10:41:28.209Z,4.98
2023-07-20T10:42:28.221Z,4.46
2023-07-20T10:43:28.221Z,4.25
2023-07-20T10:44:28.211Z,4.65
2023-07-20T10:45:28.199Z,4.47
2023-07-20T10:46:28.502Z,4.29
2023-07-20T10:47:28.498Z,4.42
2023-07-20T10:48:29.653Z,4.98
2023-07-20T10:49:28.190Z,7.79
2023-07-20T10:50:28.178Z,4.28
2023-07-20T10:51:28.166Z,4.81
2023-07-20T10:52:28.165Z,6.89
2023-07-20T10:53:28.167Z,5.12
2023-07-20T10:54:28.140Z,5.02
2023-07-20T10:55:28.143Z,4.92
2023-07-20T10:56:28.125Z,4.13
2023-07-20T10:57:28.127Z,3.72
2023-07-20T10:58:28.123Z,4.27
2023-07-20T10:59:28.102Z,3.89
2023-07-20T11:00:28.104Z,3.93
2023-07-20T11:01:28.354Z,5.33
2023-07-20T11:02:28.191Z,4.89
2023-07-20T11:03:30.079Z,10.74
2023-07-20T11:04:28.074Z,5.95
2023-07-20T11:05:28.094Z,4.79
2023-07-20T11:06:28.120Z,3.94
2023-07-20T11:07:28.051Z,4.61
2023-07-20T11:08:28.054Z,5.52
2023-07-20T11:09:28.046Z,5.85
2023-07-20T11:10:28.040Z,7.17
2023-07-20T11:11:28.051Z,6.06
2023-07-20T11:12:28.017Z,6.12
2023-07-20T11:13:28.033Z,5.17
2023-07-20T11:14:28.020Z,4.71
2023-07-20T11:15:28.013Z,4.51
2023-07-20T11:16:28.014Z,3.84
2023-07-20T11:17:28.313Z,4.01
2023-07-20T11:18:28.001Z,4.15
2023-07-20T11:20:27.981Z,4.23
2023-07-20T11:21:27.992Z,3.94
2023-07-20T11:22:27.969Z,4.77
2023-07-20T11:23:27.962Z,4.39
2023-07-20T11:24:28.001Z,4.10
2023-07-20T11:25:27.960Z,4.21
2023-07-20T11:26:27.937Z,4.29
2023-07-20T11:27:27.946Z,4.47
2023-07-20T11:28:27.922Z,3.54
2023-07-20T11:29:32.060Z,3.68
2023-07-20T11:30:27.982Z,3.84
2023-07-20T11:31:28.096Z,3.73
2023-07-20T11:32:27.938Z,4.03
2023-07-20T11:33:27.897Z,3.91
2023-07-20T11:34:27.905Z,4.21
2023-07-20T11:35:27.904Z,3.64
2023-07-20T11:37:28.265Z,3.34
2023-07-20T11:38:27.870Z,4.68
2023-07-20T11:39:27.870Z,3.79
2023-07-20T11:40:27.848Z,4.12
2023-07-20T11:41:27.889Z,3.51
2023-07-20T11:43:27.838Z,3.79
2023-07-20T11:44:27.902Z,3.92
2023-07-20T11:45:27.823Z,4.22
2023-07-20T11:46:27.976Z,4.50
2023-07-20T11:47:27.841Z,3.99
2023-07-20T11:48:27.817Z,3.80
2023-07-20T11:49:27.796Z,3.73
2023-07-20T11:50:27.787Z,4.35
2023-07-20T11:51:27.794Z,4.60
2023-07-20T11:52:27.800Z,3.79
2023-07-20T11:53:27.783Z,4.07
2023-07-20T11:54:27.811Z,3.61
2023-07-20T11:55:27.769Z,3.42
2023-07-20T11:56:27.761Z,4.04
2023-07-20T11:57:27.776Z,3.86
2023-07-20T11:58:27.770Z,3.22
2023-07-20T11:59:27.766Z,3.89
2023-07-20T12:00:28.308Z,4.20
2023-07-20T12:01:27.751Z,3.98
2023-07-20T12:02:27.774Z,4.05
2023-07-20T12:03:27.707Z,4.24
2023-07-20T12:04:27.717Z,4.06
2023-07-20T12:05:27.720Z,3.99
2023-07-20T12:06:29.469Z,3.67
2023-07-20T12:07:27.695Z,3.76
2023-07-20T12:08:27.689Z,3.41
2023-07-20T12:09:35.140Z,3.81
2023-07-20T12:10:28.671Z,3.72
2023-07-20T12:11:27.661Z,3.78
2023-07-20T12:12:28.493Z,3.86
2023-07-20T12:13:27.665Z,3.94
2023-07-20T12:14:27.640Z,3.68
2023-07-20T12:15:27.653Z,4.00
2023-07-20T12:16:27.911Z,3.48
2023-07-20T12:17:27.691Z,3.21
2023-07-20T12:18:27.722Z,4.15
2023-07-20T12:19:27.630Z,3.66
2023-07-20T12:20:27.616Z,3.78
2023-07-20T12:21:27.599Z,3.71
2023-07-20T12:22:27.609Z,3.43
2023-07-20T12:23:29.055Z,3.48
2023-07-20T12:24:27.645Z,3.15
2023-07-20T12:25:27.592Z,3.32
2023-07-20T12:26:27.575Z,3.43
2023-07-20T12:27:27.570Z,3.57
2023-07-20T12:28:27.550Z,3.85
2023-07-20T12:29:27.599Z,3.11
2023-07-20T12:30:27.552Z,3.54
2023-07-20T12:31:27.565Z,3.68
2023-07-20T12:32:27.561Z,4.05
2023-07-20T12:33:27.524Z,3.91
2023-07-20T12:34:27.522Z,3.17
2023-07-20T12:35:27.516Z,3.51
2023-07-20T12:36:27.520Z,3.46
2023-07-20T12:37:27.506Z,3.34
2023-07-20T12:38:27.494Z,3.23
2023-07-20T12:39:27.499Z,3.35
2023-07-20T12:40:27.502Z,3.31
2023-07-20T12:41:27.492Z,2.95
2023-07-20T12:42:27.516Z,3.56
2023-07-20T12:43:27.464Z,3.16
2023-07-20T12:44:27.462Z,2.86
2023-07-20T12:45:27.460Z,3.54
2023-07-20T12:46:27.696Z,3.30
2023-07-20T12:47:27.449Z,3.92
2023-07-20T12:48:27.434Z,3.76
2023-07-20T12:49:27.438Z,3.52
2023-07-20T12:50:27.473Z,3.72
2023-07-20T12:51:27.415Z,3.13
2023-07-20T12:52:27.403Z,3.62
2023-07-20T12:53:27.409Z,2.81
2023-07-20T12:54:28.186Z,3.77
2023-07-20T12:55:27.386Z,3.52
2023-07-20T12:57:27.383Z,2.71
2023-07-20T12:58:27.381Z,3.70
2023-07-20T12:59:27.366Z,3.84
2023-07-20T13:00:27.359Z,3.44
2023-07-20T13:01:27.392Z,2.74
2023-07-20T13:02:27.372Z,3.41
2023-07-20T13:04:27.387Z,3.48
2023-07-20T13:06:28.785Z,3.55
2023-07-20T13:08:27.323Z,3.25
2023-07-20T13:09:27.293Z,2.72
2023-07-20T13:10:27.296Z,3.43
2023-07-20T13:11:27.486Z,3.17
2023-07-20T13:12:27.292Z,3.66
2023-07-20T13:13:27.275Z,3.46
2023-07-20T13:14:27.276Z,2.88
2023-07-20T13:15:27.275Z,3.12
2023-07-20T13:16:27.277Z,3.00
2023-07-20T13:17:27.287Z,3.97
2023-07-20T13:18:27.301Z,3.33
2023-07-20T13:19:28.121Z,3.54
2023-07-20T13:20:27.478Z,3.18
2023-07-20T13:21:27.740Z,3.19
2023-07-20T13:22:27.584Z,2.93
2023-07-20T13:23:27.604Z,3.02
2023-07-20T13:24:27.667Z,3.65
2023-07-20T13:25:27.636Z,3.42
2023-07-20T13:26:27.651Z,3.58
2023-07-20T13:27:27.662Z,2.98
2023-07-20T13:28:27.666Z,3.12
2023-07-20T13:29:27.731Z,3.10
2023-07-20T13:30:28.096Z,3.68
2023-07-20T13:31:29.074Z,3.88
2023-07-20T13:32:27.834Z,3.45
2023-07-20T13:33:29.300Z,3.51
2023-07-20T13:34:30.016Z,3.34
2023-07-20T13:35:48.889Z,3.76
2023-07-20T13:36:30.510Z,3.41
2023-07-20T13:37:27.808Z,3.88
2023-07-20T13:38:27.869Z,3.21
2023-07-20T13:39:27.796Z,3.60
2023-07-20T13:40:27.804Z,3.24
2023-07-20T13:41:29.731Z,3.70
2023-07-20T13:42:27.886Z,3.46
2023-07-20T13:43:27.919Z,3.55
2023-07-20T13:44:30.547Z,3.42
2023-07-20T13:45:27.973Z,4.03
2023-07-20T13:47:28.051Z,3.40